createdAt,value
2023-11-17T00:00:15.004Z,8.38
2023-11-17T00:02:42.474Z,10.93
2023-11-17T00:05:10.130Z,11.38
2023-11-17T00:07:37.475Z,9.52
2023-11-17T00:10:08.284Z,10.88
2023-11-17T00:12:36.597Z,8.35
2023-11-17T00:15:03.786Z,11.60
2023-11-17T00:17:30.733Z,13.25
2023-11-17T00:19:57.924Z,13.80
2023-11-17T00:22:24.909Z,11.25
2023-11-17T00:24:52.158Z,8.68
2023-11-17T00:27:19.475Z,9.80
2023-11-17T00:29:46.671Z,10.50
2023-11-17T00:32:13.542Z,14.02
2023-11-17T00:34:40.629Z,10.30
2023-11-17T00:37:11.419Z,8.77
2023-11-17T00:39:39.404Z,9.80
2023-11-17T00:42:09.468Z,9.63
2023-11-17T00:44:36.872Z,8.00
2023-11-17T00:47:05.954Z,9.88
2023-11-17T00:49:35.017Z,9.82
2023-11-17T00:52:03.348Z,14.23
2023-11-17T00:54:32.495Z,9.10
2023-11-17T00:56:59.538Z,13.63
2023-11-17T00:59:26.434Z,13.32
2023-11-17T01:01:53.696Z,12.73
2023-11-17T01:04:21.370Z,10.73
2023-11-17T01:06:55.729Z,7.97
2023-11-17T01:09:23.928Z,11.88
2023-11-17T01:11:51.076Z,9.93
2023-11-17T01:14:18.269Z,8.48
2023-11-17T01:16:49.979Z,10.65
2023-11-17T01:19:17.059Z,8.85
2023-11-17T01:21:43.947Z,10.52
2023-11-17T01:24:11.029Z,8.43
2023-11-17T01:26:37.931Z,8.82
2023-11-17T01:29:06.299Z,8.38
2023-11-17T01:31:33.527Z,12.02
2023-11-17T01:34:00.970Z,10.07
2023-11-17T01:36:29.790Z,8.10
2023-11-17T01:38:56.917Z,10.25
2023-11-17T01:41:25.353Z,8.68
2023-11-17T01:43:52.714Z,9.25
2023-11-17T01:46:22.031Z,8.45
2023-11-17T01:48:49.491Z,11.93
2023-11-17T01:51:16.538Z,9.95
2023-11-17T01:53:43.732Z,11.55
2023-11-17T01:56:10.884Z,8.18
2023-11-17T01:58:37.796Z,8.52
2023-11-17T02:01:09.554Z,9.23
2023-11-17T02:03:41.678Z,10.13
2023-11-17T02:06:42.269Z,14.93
2023-11-17T02:09:23.188Z,9.30
2023-11-17T02:12:16.067Z,8.07
2023-11-17T02:14:48.449Z,7.15
2023-11-17T02:17:17.095Z,9.40
2023-11-17T02:19:45.188Z,8.32
2023-11-17T02:22:22.718Z,10.68
2023-11-17T02:25:12.137Z,9.38
2023-11-17T02:28:13.561Z,7.53
2023-11-17T02:30:43.444Z,10.65
2023-11-17T02:33:12.439Z,12.48
2023-11-17T02:35:39.642Z,8.40
2023-11-17T02:38:06.803Z,11.07
2023-11-17T02:40:34.335Z,9.07
2023-11-17T02:43:01.473Z,10.52
2023-11-17T02:45:29.238Z,10.52
2023-11-17T02:48:00.125Z,9.20
2023-11-17T02:50:33.213Z,9.10
2023-11-17T02:53:12.008Z,8.35
2023-11-17T02:55:39.534Z,10.95
2023-11-17T02:58:06.808Z,10.35
2023-11-17T03:00:33.733Z,8.68
2023-11-17T03:03:00.888Z,11.57
2023-11-17T03:05:28.395Z,9.35
2023-11-17T03:07:55.382Z,10.15
2023-11-17T03:10:24.006Z,18.10
2023-11-17T03:12:56.812Z,13.35
2023-11-17T03:15:25.575Z,9.90
2023-11-17T03:17:53.330Z,10.82
2023-11-17T03:20:20.707Z,12.15
2023-11-17T03:22:48.188Z,10.23
2023-11-17T03:25:16.951Z,13.25
2023-11-17T03:27:44.879Z,9.50
2023-11-17T03:30:12.700Z,12.07
2023-11-17T03:32:40.239Z,8.25
2023-11-17T03:35:07.708Z,9.68
2023-11-17T03:37:35.530Z,16.55
2023-11-17T03:40:12.716Z,9.77
2023-11-17T03:42:41.829Z,9.88
2023-11-17T03:45:09.748Z,13.55
2023-11-17T03:47:36.976Z,8.75
2023-11-17T03:50:04.723Z,10.95
2023-11-17T03:52:34.572Z,8.52
2023-11-17T03:55:01.871Z,12.00
2023-11-17T03:57:29.524Z,8.73
2023-11-17T04:00:00.989Z,10.88
2023-11-17T04:02:29.542Z,10.43
2023-11-17T04:04:57.150Z,10.25
2023-11-17T04:07:24.690Z,11.25
2023-11-17T04:09:52.136Z,13.35
2023-11-17T04:12:19.202Z,12.93
2023-11-17T04:14:47.136Z,9.20
2023-11-17T04:17:14.659Z,13.40
2023-11-17T04:19:43.333Z,15.85
2023-11-17T04:22:11.293Z,13.30
2023-11-17T04:24:38.680Z,12.23
2023-11-17T04:27:08.122Z,9.10
2023-11-17T04:29:34.936Z,12.15
2023-11-17T04:32:02.040Z,9.88
2023-11-17T04:34:28.911Z,9.77
2023-11-17T04:36:57.335Z,7.85
2023-11-17T04:39:25.816Z,7.68
2023-11-17T04:41:52.825Z,10.65
2023-11-17T04:44:20.260Z,10.13
2023-11-17T04:46:49.299Z,10.07
2023-11-17T04:49:16.415Z,9.68
2023-11-17T04:51:49.868Z,9.82
2023-11-17T04:54:16.892Z,11.10
2023-11-17T04:56:44.178Z,8.77
2023-11-17T04:59:14.319Z,8.80
2023-11-17T05:01:41.607Z,11.07
2023-11-17T05:04:08.952Z,9.98
2023-11-17T05:06:37.721Z,12.20
2023-11-17T05:09:11.664Z,10.00
2023-11-17T05:11:39.601Z,14.98
2023-11-17T05:14:06.933Z,11.73
2023-11-17T05:16:38.553Z,10.40
2023-11-17T05:19:05.857Z,14.75
2023-11-17T05:21:34.004Z,10.23
2023-11-17T05:24:01.882Z,12.55
2023-11-17T05:26:28.926Z,9.30
2023-11-17T05:28:56.103Z,11.90
2023-11-17T05:31:23.162Z,12.65
2023-11-17T05:33:50.306Z,8.68
2023-11-17T05:36:17.360Z,9.15
2023-11-17T05:38:45.191Z,12.52
2023-11-17T05:41:12.350Z,14.73
2023-11-17T05:43:39.364Z,8.15
2023-11-17T05:46:07.103Z,10.82
2023-11-17T05:48:34.206Z,8.48
2023-11-17T05:51:07.226Z,11.68
2023-11-17T05:53:35.673Z,10.90
2023-11-17T05:56:03.557Z,11.23
2023-11-17T05:58:30.486Z,16.30
2023-11-17T06:00:57.473Z,12.57
2023-11-17T06:03:24.465Z,11.13
2023-11-17T06:05:51.506Z,12.30
2023-11-17T06:08:18.368Z,12.68
2023-11-17T06:10:45.424Z,11.50
2023-11-17T06:13:15.817Z,14.35
2023-11-17T06:15:43.016Z,12.35
2023-11-17T06:18:10.004Z,14.75
2023-11-17T06:20:37.153Z,12.18
2023-11-17T06:23:04.077Z,12.20
2023-11-17T06:25:33.722Z,7.43
2023-11-17T06:28:00.688Z,11.48
2023-11-17T06:30:27.787Z,11.27
2023-11-17T06:32:54.804Z,12.27
2023-11-17T06:35:21.791Z,8.40
2023-11-17T06:37:49.321Z,12.50
2023-11-17T06:40:17.221Z,11.10
2023-11-17T06:42:44.801Z,11.63
2023-11-17T06:45:14.573Z,15.05
2023-11-17T06:47:47.211Z,15.60
2023-11-17T06:50:14.358Z,11.35
2023-11-17T06:52:43.078Z,14.07
2023-11-17T06:55:10.900Z,12.23
2023-11-17T06:57:38.103Z,10.55
2023-11-17T07:00:11.469Z,15.88
2023-11-17T07:02:38.495Z,14.35
2023-11-17T07:05:08.499Z,14.90
2023-11-17T07:07:36.519Z,16.15
2023-11-17T07:10:03.543Z,12.88
2023-11-17T07:12:30.724Z,13.43
2023-11-17T07:14:58.977Z,13.35
2023-11-17T07:17:26.387Z,13.98
2023-11-17T07:19:53.428Z,17.67
2023-11-17T07:22:20.556Z,13.05
2023-11-17T07:24:47.467Z,16.67
2023-11-17T07:27:14.592Z,14.50
2023-11-17T07:29:42.298Z,16.17
2023-11-17T07:32:09.352Z,16.83
2023-11-17T07:34:36.264Z,14.23
2023-11-17T07:37:04.812Z,13.55
2023-11-17T07:39:31.687Z,16.38
2023-11-17T07:41:58.775Z,18.13
2023-11-17T07:44:30.068Z,16.17
2023-11-17T07:46:59.473Z,14.43
2023-11-17T07:49:26.972Z,19.98
2023-11-17T07:51:54.800Z,16.75
2023-11-17T07:54:26.324Z,14.02
2023-11-17T07:56:53.577Z,17.10
2023-11-17T07:59:23.183Z,18.90
2023-11-17T08:01:50.949Z,16.08
2023-11-17T08:04:19.095Z,17.20
2023-11-17T08:06:46.789Z,21.38
2023-11-17T08:09:14.158Z,19.98
2023-11-17T08:11:41.783Z,17.35
2023-11-17T08:14:10.027Z,25.38
2023-11-17T08:16:38.353Z,32.88
2023-11-17T08:19:18.268Z,26.80
2023-11-17T08:21:54.733Z,20.50
2023-11-17T08:24:23.983Z,25.15
2023-11-17T08:26:52.769Z,37.97
2023-11-17T08:29:22.916Z,24.52
2023-11-17T08:31:51.655Z,25.27
2023-11-17T08:34:18.955Z,20.00
2023-11-17T08:36:46.175Z,19.77
2023-11-17T08:39:27.329Z,32.55
2023-11-17T08:41:56.629Z,25.83
2023-11-17T08:44:24.889Z,29.63
2023-11-17T08:46:53.041Z,33.65
2023-11-17T08:49:20.310Z,18.40
2023-11-17T08:51:49.988Z,15.80
2023-11-17T08:54:19.185Z,19.65
2023-11-17T08:56:49.683Z,21.05
2023-11-17T08:59:16.883Z,20.42
2023-11-17T09:01:43.923Z,18.23
2023-11-17T09:04:11.177Z,22.08
2023-11-17T09:06:38.154Z,30.45
2023-11-17T09:09:16.460Z,25.73
2023-11-17T09:11:51.561Z,27.77
2023-11-17T09:14:18.893Z,57.47
2023-11-17T09:16:49.937Z,33.67
2023-11-17T09:19:18.140Z,36.22
2023-11-17T09:21:45.555Z,37.60
2023-11-17T09:24:12.538Z,29.00
2023-11-17T09:26:39.605Z,29.70
2023-11-17T09:29:06.480Z,25.65
2023-11-17T09:31:33.606Z,31.25
2023-11-17T09:34:00.586Z,38.15
2023-11-17T09:36:27.656Z,25.75
2023-11-17T09:38:55.036Z,24.20
2023-11-17T09:41:24.570Z,36.63
2023-11-17T09:43:59.453Z,31.40
2023-11-17T09:46:29.333Z,31.52
2023-11-17T09:49:03.720Z,32.47
2023-11-17T09:51:33.847Z,37.50
2023-11-17T09:54:03.898Z,34.50
2023-11-17T09:56:31.369Z,27.00
2023-11-17T09:58:59.304Z,25.77
2023-11-17T10:01:30.344Z,19.42
2023-11-17T10:03:59.520Z,24.95
2023-11-17T10:06:28.811Z,26.02
2023-11-17T10:08:56.893Z,25.40
2023-11-17T10:11:24.361Z,21.55
2023-11-17T10:13:52.926Z,18.55
2023-11-17T10:16:21.723Z,20.38
2023-11-17T10:18:48.851Z,20.15
2023-11-17T10:21:49.681Z,20.10
2023-11-17T10:24:18.074Z,23.20
2023-11-17T10:26:48.732Z,29.65
2023-11-17T10:29:15.673Z,140.32
2023-11-17T10:31:44.769Z,33.53
2023-11-17T10:34:15.458Z,28.02
2023-11-17T10:36:58.662Z,22.38
2023-11-17T10:39:26.078Z,20.48
2023-11-17T10:41:53.833Z,24.05
2023-11-17T10:44:33.270Z,18.40
2023-11-17T10:47:06.135Z,21.50
2023-11-17T10:49:34.099Z,19.67
2023-11-17T10:52:01.139Z,19.45
2023-11-17T10:54:31.223Z,16.85
2023-11-17T10:57:10.236Z,20.83
2023-11-17T10:59:48.304Z,54.85
2023-11-17T11:02:21.212Z,35.90
2023-11-17T11:04:49.907Z,25.58
2023-11-17T11:07:16.987Z,17.90
2023-11-17T11:09:43.895Z,18.10
2023-11-17T11:12:14.838Z,21.40
2023-11-17T11:14:42.702Z,16.70
2023-11-17T11:17:13.552Z,14.40
2023-11-17T11:19:52.801Z,14.40
2023-11-17T11:22:30.330Z,13.05
2023-11-17T11:24:58.257Z,12.65
2023-11-17T11:27:26.848Z,44.53
2023-11-17T11:29:54.201Z,38.67
2023-11-17T11:32:22.115Z,31.70
2023-11-17T11:34:49.667Z,25.50
2023-11-17T11:37:18.617Z,21.63
2023-11-17T11:39:47.160Z,20.65
2023-11-17T11:42:15.275Z,23.35
2023-11-17T11:44:42.832Z,35.65
2023-11-17T11:47:10.219Z,18.70
2023-11-17T11:49:37.576Z,18.42
2023-11-17T11:52:13.364Z,17.13
2023-11-17T11:54:42.296Z,19.83
2023-11-17T11:57:26.177Z,17.05
2023-11-17T11:59:53.524Z,20.67
2023-11-17T12:02:20.629Z,13.75
2023-11-17T12:04:54.473Z,14.88
2023-11-17T12:07:34.083Z,13.75
2023-11-17T12:10:02.538Z,14.48
2023-11-17T12:12:29.742Z,9.77
2023-11-17T12:14:59.021Z,9.60
2023-11-17T12:17:32.544Z,6.60
2023-11-17T12:20:30.463Z,3.13
2023-11-17T12:23:05.078Z,4.15
2023-11-17T12:25:32.447Z,2.78
2023-11-17T12:28:00.552Z,4.05
2023-11-17T12:30:28.589Z,1.63
2023-11-17T12:32:58.025Z,3.25
2023-11-17T12:35:28.823Z,2.55
2023-11-17T12:37:56.345Z,1.77
2023-11-17T12:40:24.170Z,4.47
2023-11-17T12:42:52.450Z,3.30
2023-11-17T12:45:21.419Z,7.65
2023-11-17T12:47:48.792Z,7.85
2023-11-17T12:50:15.957Z,6.60
2023-11-17T12:53:07.568Z,8.27
2023-11-17T12:55:49.041Z,7.95
2023-11-17T12:58:16.787Z,7.50
2023-11-17T13:00:47.730Z,9.25
2023-11-17T13:03:15.251Z,10.30
2023-11-17T13:05:42.510Z,10.80
2023-11-17T13:08:10.220Z,9.40
2023-11-17T13:10:37.609Z,8.88
2023-11-17T13:13:07.769Z,7.03
2023-11-17T13:15:35.041Z,7.10
2023-11-17T13:18:02.097Z,6.55
2023-11-17T13:20:31.939Z,8.15
2023-11-17T13:22:58.936Z,8.00
2023-11-17T13:25:27.723Z,6.85
2023-11-17T13:27:55.242Z,8.52
2023-11-17T13:30:22.898Z,9.50
2023-11-17T13:32:52.315Z,11.00
2023-11-17T13:35:20.839Z,9.32
2023-11-17T13:37:52.559Z,9.27
2023-11-17T13:40:43.262Z,9.43
2023-11-17T13:43:12.031Z,8.82
2023-11-17T13:45:43.944Z,7.20
2023-11-17T13:48:13.857Z,8.80
2023-11-17T13:50:50.636Z,9.95
2023-11-17T13:53:18.489Z,10.20
2023-11-17T13:55:47.669Z,10.63
2023-11-17T13:58:16.033Z,35.33
2023-11-17T14:00:47.550Z,21.00
2023-11-17T14:03:15.054Z,23.25
2023-11-17T14:05:43.661Z,55.33
2023-11-17T14:08:13.673Z,266.77
2023-11-17T14:10:40.702Z,224.55
2023-11-17T14:13:07.713Z,94.65
2023-11-17T14:15:43.318Z,51.22
2023-11-17T14:18:18.799Z,40.40
2023-11-17T14:20:47.479Z,46.33
2023-11-17T14:23:15.593Z,28.35
2023-11-17T14:25:43.353Z,30.13
2023-11-17T14:28:10.384Z,67.13
2023-11-17T14:30:37.540Z,59.80
2023-11-17T14:33:06.480Z,31.33
2023-11-17T14:35:34.083Z,6.20
2023-11-17T14:38:01.432Z,41.80
2023-11-17T14:40:29.155Z,25.33
2023-11-17T14:43:00.270Z,36.55
2023-11-17T14:45:28.052Z,39.03
2023-11-17T14:47:55.452Z,29.52
2023-11-17T14:50:22.674Z,13.82
2023-11-17T14:52:49.745Z,12.77
2023-11-17T14:55:23.873Z,13.85
2023-11-17T14:57:51.297Z,8.00
2023-11-17T15:00:24.753Z,5.40
2023-11-17T15:02:53.891Z,5.50
2023-11-17T15:05:21.465Z,8.85
2023-11-17T15:07:49.131Z,7.40
2023-11-17T15:10:17.890Z,35.17
2023-11-17T15:12:46.340Z,38.42
2023-11-17T15:15:25.957Z,34.05
2023-11-17T15:17:55.868Z,47.55
2023-11-17T15:20:24.518Z,36.00
2023-11-17T15:22:53.075Z,8.73
2023-11-17T15:25:25.733Z,21.48
2023-11-17T15:27:56.735Z,8.00
2023-11-17T15:30:28.147Z,16.77
2023-11-17T15:32:55.492Z,8.65
2023-11-17T15:35:25.030Z,8.05
2023-11-17T15:37:52.175Z,6.78
2023-11-17T15:40:23.177Z,7.78
2023-11-17T15:42:50.610Z,11.90
2023-11-17T15:45:24.277Z,5.45
2023-11-17T15:47:52.065Z,7.68
2023-11-17T15:50:20.253Z,4.95
2023-11-17T15:52:47.872Z,6.00
2023-11-17T15:55:18.485Z,9.25
2023-11-17T15:57:46.774Z,9.55
2023-11-17T16:00:24.803Z,9.27
2023-11-17T16:02:53.358Z,10.55
2023-11-17T16:05:22.914Z,15.43
2023-11-17T16:07:52.777Z,10.07
2023-11-17T16:10:24.947Z,20.10
2023-11-17T16:12:55.105Z,66.40
2023-11-17T16:15:23.123Z,42.75
2023-11-17T16:17:57.905Z,15.55
2023-11-17T16:20:32.827Z,17.42
2023-11-17T16:23:01.699Z,52.17
2023-11-17T16:25:30.500Z,95.93
2023-11-17T16:27:59.540Z,77.93
2023-11-17T16:30:26.648Z,82.53
2023-11-17T16:32:56.346Z,62.15
2023-11-17T16:35:28.357Z,76.97
2023-11-17T16:40:28.797Z,34.22
2023-11-17T16:43:03.847Z,12.55
2023-11-17T16:45:35.091Z,21.95
2023-11-17T16:48:05.089Z,36.20
2023-11-17T16:50:40.573Z,28.42
2023-11-17T16:53:10.446Z,20.52
2023-11-17T16:55:38.306Z,14.15
2023-11-17T16:58:06.650Z,17.30
2023-11-17T17:00:36.845Z,17.40
2023-11-17T17:03:06.101Z,35.72
2023-11-17T17:05:34.896Z,14.55
2023-11-17T17:08:04.399Z,16.63
2023-11-17T17:10:35.680Z,15.18
2023-11-17T17:13:02.897Z,17.10
2023-11-17T17:15:32.839Z,14.45
2023-11-17T17:18:06.147Z,13.10
2023-11-17T17:20:39.436Z,11.98
2023-11-17T17:23:08.498Z,16.83
2023-11-17T17:25:41.063Z,69.53
2023-11-17T17:28:12.782Z,47.80
2023-11-17T17:30:42.250Z,29.25
2023-11-17T17:33:11.773Z,20.13
2023-11-17T17:35:44.016Z,27.85
2023-11-17T17:38:13.565Z,27.40
2023-11-17T17:40:42.250Z,14.85
2023-11-17T17:43:11.419Z,10.70
2023-11-17T17:45:40.639Z,12.75
2023-11-17T17:48:09.802Z,15.70
2023-11-17T17:50:38.315Z,11.63
2023-11-17T17:53:05.748Z,13.48
2023-11-17T17:55:32.808Z,10.02
2023-11-17T17:58:00.017Z,9.85
2023-11-17T18:00:29.285Z,10.60
2023-11-17T18:03:01.558Z,26.45
2023-11-17T18:05:30.755Z,46.97
2023-11-17T18:07:57.918Z,77.22
2023-11-17T18:10:26.325Z,27.13
2023-11-17T18:12:53.844Z,45.70
2023-11-17T18:15:23.342Z,45.22
2023-11-17T18:17:53.208Z,32.53
2023-11-17T18:20:24.895Z,21.60
2023-11-17T18:22:54.929Z,37.88
2023-11-17T18:25:22.907Z,40.40
2023-11-17T18:27:51.038Z,49.40
2023-11-17T18:30:19.709Z,47.78
2023-11-17T18:32:47.219Z,47.88
2023-11-17T18:35:16.719Z,69.30
2023-11-17T18:37:50.733Z,38.72
2023-11-17T18:40:26.847Z,22.33
2023-11-17T18:42:57.187Z,16.88
2023-11-17T18:45:24.823Z,18.90
2023-11-17T18:47:54.372Z,19.35
2023-11-17T18:50:22.336Z,21.45
2023-11-17T18:52:50.151Z,142.10
2023-11-17T18:55:18.858Z,15.07
2023-11-17T18:57:46.525Z,26.25
2023-11-17T19:00:21.811Z,22.35
2023-11-17T19:02:53.540Z,21.70
2023-11-17T19:05:21.338Z,20.13
2023-11-17T19:07:50.012Z,21.35
2023-11-17T19:10:21.410Z,24.17
2023-11-17T19:12:49.847Z,21.30
2023-11-17T19:15:20.829Z,28.08
2023-11-17T19:17:48.033Z,22.70
2023-11-17T19:20:16.874Z,24.13
2023-11-17T19:22:45.707Z,22.63
2023-11-17T19:25:13.121Z,21.33
2023-11-17T19:27:41.278Z,19.35
2023-11-17T19:30:16.255Z,21.40
2023-11-17T19:32:49.241Z,18.10
2023-11-17T19:35:20.537Z,18.95
2023-11-17T19:37:48.304Z,30.75
2023-11-17T19:40:16.359Z,41.20
2023-11-17T19:42:45.271Z,34.85
2023-11-17T19:45:17.474Z,39.03
2023-11-17T19:47:45.912Z,31.23
2023-11-17T19:50:15.734Z,34.78
2023-11-17T19:52:48.407Z,32.88
2023-11-17T19:55:16.613Z,40.25
2023-11-17T19:57:48.680Z,23.08
2023-11-17T20:00:24.614Z,45.88
2023-11-17T20:02:54.212Z,30.38
2023-11-17T20:05:23.841Z,39.35
2023-11-17T20:07:51.789Z,23.13
2023-11-17T20:10:19.193Z,23.80
2023-11-17T20:12:46.648Z,37.17
2023-11-17T20:15:18.741Z,68.28
2023-11-17T20:17:56.266Z,28.95
2023-11-17T20:20:28.851Z,30.55
2023-11-17T20:22:59.625Z,101.75
2023-11-17T20:25:27.834Z,70.75
2023-11-17T20:27:57.097Z,43.42
2023-11-17T20:30:26.701Z,59.88
2023-11-17T20:32:55.766Z,73.15
2023-11-17T20:35:25.119Z,40.60
2023-11-17T20:37:53.802Z,44.00
2023-11-17T20:40:21.262Z,39.92
2023-11-17T20:42:52.203Z,33.83
2023-11-17T20:45:21.951Z,42.22
2023-11-17T20:47:49.446Z,48.47
2023-11-17T20:50:18.459Z,26.88
2023-11-17T20:52:49.692Z,31.52
2023-11-17T20:55:20.753Z,71.85
2023-11-17T20:57:48.616Z,78.32
2023-11-17T21:00:21.501Z,54.65
2023-11-17T21:02:59.381Z,39.95
2023-11-17T21:05:28.139Z,38.72
2023-11-17T21:07:56.524Z,90.90
2023-11-17T21:10:27.954Z,26.92
2023-11-17T21:12:56.797Z,43.08
2023-11-17T21:15:24.865Z,43.60
2023-11-17T21:17:55.188Z,58.50
2023-11-17T21:20:22.719Z,63.83
2023-11-17T21:22:51.156Z,43.63
2023-11-17T21:25:23.137Z,31.05
2023-11-17T21:27:51.897Z,24.92
2023-11-17T21:30:20.266Z,35.35
2023-11-17T21:32:55.682Z,22.85
2023-11-17T21:35:23.112Z,19.35
2023-11-17T21:37:53.513Z,27.63
2023-11-17T21:40:22.181Z,23.33
2023-11-17T21:42:50.525Z,30.42
2023-11-17T21:45:22.570Z,28.77
2023-11-17T21:50:22.891Z,28.10
2023-11-17T21:52:56.939Z,29.40
2023-11-17T21:55:24.431Z,21.13
2023-11-17T21:57:51.690Z,23.00
2023-11-17T22:00:19.884Z,27.15
2023-11-17T22:02:48.486Z,31.60
2023-11-17T22:05:17.277Z,30.75
2023-11-17T22:07:45.323Z,29.48
2023-11-17T22:10:13.411Z,26.10
2023-11-17T22:12:41.213Z,36.95
2023-11-17T22:15:10.120Z,23.83
2023-11-17T22:17:38.173Z,29.80
2023-11-17T22:20:07.113Z,23.17
2023-11-17T22:22:34.947Z,27.42
2023-11-17T22:25:02.578Z,28.98
2023-11-17T22:27:29.932Z,24.48
2023-11-17T22:29:57.359Z,26.13
2023-11-17T22:32:27.467Z,25.33
2023-11-17T22:34:54.615Z,25.27
2023-11-17T22:37:21.626Z,29.80
2023-11-17T22:39:48.647Z,29.40
2023-11-17T22:42:15.727Z,28.85
2023-11-17T22:44:42.867Z,25.23
2023-11-17T22:47:09.858Z,23.65
2023-11-17T22:49:38.368Z,26.67
2023-11-17T22:52:05.992Z,28.70
2023-11-17T22:54:33.138Z,23.52
2023-11-17T22:57:00.741Z,27.20
2023-11-17T22:59:28.489Z,27.48
2023-11-17T23:01:55.868Z,27.83
2023-11-17T23:04:22.944Z,26.95
2023-11-17T23:06:50.293Z,33.90
2023-11-17T23:09:17.170Z,33.83
2023-11-17T23:11:45.455Z,33.45
2023-11-17T23:14:12.590Z,27.80
2023-11-17T23:16:39.856Z,29.45
2023-11-17T23:19:17.837Z,34.03
2023-11-17T23:21:49.165Z,28.50
2023-11-17T23:24:16.270Z,27.42
2023-11-17T23:26:43.130Z,29.08
2023-11-17T23:29:10.113Z,30.45
2023-11-17T23:31:37.045Z,26.10
2023-11-17T23:34:04.243Z,28.23
2023-11-17T23:36:31.210Z,29.80
2023-11-17T23:38:59.134Z,26.23
2023-11-17T23:41:26.755Z,32.53
2023-11-17T23:43:55.329Z,27.75
2023-11-17T23:46:24.382Z,28.90
2023-11-17T23:48:51.694Z,31.15
2023-11-17T23:51:18.581Z,25.92
2023-11-17T23:53:45.503Z,29.42
2023-11-17T23:56:13.701Z,30.02
2023-11-17T23:58:41.044Z,37.65
